HK4RAU-31 Weather Reports


Display with metric or nautical units.
time (UTC)temp
F
wind
direction
speed
MPH
gust
MPH
rain 1hr
in
rain 24hr
in
rain mn
in
humidity
%
barometer
mb
20260507135138 56 70 8.0 0.0 0.00 0.00 0.00 90 1019.0
20260507134837 55 70 8.0 0.0 0.00 0.00 0.00 93 1019.0
20260507134530 56 70 8.0 0.0 0.00 0.00 0.00 90 1019.0
20260507134229 55 70 8.0 0.0 0.00 0.00 0.00 93 1019.0
20260507133922 55 70 8.0 0.0 0.00 0.00 0.00 93 1019.0
20260507133616 56 70 8.0 0.0 0.00 0.00 0.00 92 1019.0
20260507133309 55 118 1.0 4.0 0.00 0.00 0.00 94 1019.0
20260507133003 55 0 4.0 0.0 0.00 0.00 0.00 94 1019.0
20260507132657 55 0 4.0 0.0 0.00 0.00 0.00 94 1019.0
20260507132354 55 0 4.0 0.0 0.00 0.00 0.00 94 1019.0
20260507132047 55 0 4.0 0.0 0.00 0.00 0.00 94 1019.0
20260507131741 55 0 4.0 0.0 0.00 0.00 0.00 94 1019.0
20260507131440 55 0 4.0 0.0 0.00 0.00 0.00 94 1019.0
20260507131133 56 0 4.0 0.0 0.00 0.00 0.00 94 1019.0
20260507130826 56 0 4.0 0.0 0.00 0.00 0.00 94 1019.0
20260507130518 56 50 4.0 0.0 0.00 0.00 0.00 94 1019.0
20260507130212 56 50 4.0 0.0 0.00 0.00 0.00 94 1019.0
20260507125910 56 50 4.0 0.0 0.00 0.00 0.00 94 1019.0
20260507125609 56 50 4.0 0.0 0.00 0.00 0.00 94 1019.0
20260507125306 56 50 4.0 0.0 0.00 0.00 0.00 94 1019.0
20260507124956 56 50 4.0 0.0 0.00 0.00 0.00 94 1019.0
20260507124655 49 118 1.0 4.0 0.00 0.00 0.00 97 1020.0
20260507124354 49 118 1.0 4.0 0.00 0.00 0.00 97 1020.0
20260507124042 53 50 4.0 0.0 0.00 0.00 0.00 97 1020.0
20260507123741 49 118 1.0 4.0 0.00 0.00 0.00 97 1020.0
20260507123129 49 111 2.0 4.0 0.00 0.00 0.00 97 1020.0
20260507122823 49 111 2.0 4.0 0.00 0.00 0.00 97 1020.0
20260507122516 49 111 2.0 4.0 0.00 0.00 0.00 97 1020.0
20260507122215 49 111 2.0 4.0 0.00 0.00 0.00 97 1020.0
20260507121603 49 111 2.0 4.0 0.00 0.00 0.00 97 1020.0
20260507120933 49 111 2.0 4.0 0.00 0.00 0.00 97 1020.0
20260507120627 49 111 2.0 4.0 0.00 0.00 0.00 97 1020.0
20260507120320 49 0 3.0 0.0 0.00 0.00 0.00 97 1020.0
20260507120020 49 0 3.0 0.0 0.00 0.00 0.00 97 1020.0
20260507115711 49 0 3.0 0.0 0.00 0.00 0.00 97 1020.0
20260507115404 49 0 3.0 0.0 0.00 0.00 0.00 97 1020.0
20260507114735 49 0 3.0 0.0 0.00 0.00 0.00 97 1020.0
20260507114427 49 0 3.0 0.0 0.00 0.00 0.00 97 1020.0
20260507114115 49 0 3.0 0.0 0.00 0.00 0.00 97 1020.0
20260507113813 49 0 3.0 0.0 0.00 0.00 0.00 97 1020.0
20260507113506 49 0 3.0 0.0 0.00 0.00 0.00 97 1020.0
20260507113154 49 0 3.0 0.0 0.00 0.00 0.00 97 1020.0
20260507112853 49 0 3.0 0.0 0.00 0.00 0.00 97 1020.0
20260507112546 49 0 3.0 0.0 0.00 0.00 0.00 97 1020.0
20260507112244 49 70 4.0 0.0 0.00 0.00 0.00 96 1020.0
20260507111938 49 70 4.0 0.0 0.00 0.00 0.00 96 1020.0
20260507111626 49 70 4.0 0.0 0.00 0.00 0.00 96 1020.0
20260507111325 49 70 4.0 0.0 0.00 0.00 0.00 96 1020.0
20260507111017 49 70 4.0 0.0 0.00 0.00 0.00 96 1020.0
20260507110642 49 70 4.0 0.0 0.00 0.00 0.00 95 1020.0
20260507110339 49 70 4.0 0.0 0.00 0.00 0.00 95 1020.0
20260507110028 49 70 4.0 0.0 0.00 0.00 0.00 95 1020.0
20260507105720 49 70 4.0 0.0 0.00 0.00 0.00 95 1020.0
20260507105414 49 70 4.0 0.0 0.00 0.00 0.00 95 1020.0
20260507105108 49 70 4.0 0.0 0.00 0.00 0.00 95 1020.0
20260507104454 49 70 4.0 0.0 0.00 0.00 0.00 94 1020.0
20260507104148 49 70 4.0 0.0 0.00 0.00 0.00 94 1020.0
20260507103841 49 70 4.0 0.0 0.00 0.00 0.00 94 1020.0
20260507103535 49 70 4.0 0.0 0.00 0.00 0.00 94 1020.0
20260507103228 49 80 3.0 0.0 0.00 0.00 0.00 93 1020.0
20260507102927 49 80 3.0 0.0 0.00 0.00 0.00 93 1020.0
20260507102621 49 80 3.0 0.0 0.00 0.00 0.00 93 1020.0
20260507102314 49 80 3.0 0.0 0.00 0.00 0.00 93 1020.0
20260507102007 49 80 3.0 0.0 0.00 0.00 0.00 92 1020.0
20260507101701 49 102 3.0 3.0 0.00 0.00 0.00 91 1020.0
20260507101354 49 102 3.0 3.0 0.00 0.00 0.00 91 1020.0
20260507101053 49 80 3.0 0.0 0.00 0.00 0.00 92 1020.0
20260507100751 49 102 3.0 3.0 0.00 0.00 0.00 91 1020.0
20260507100445 49 102 3.0 3.0 0.00 0.00 0.00 91 1020.0
20260507100133 49 102 3.0 3.0 0.00 0.00 0.00 91 1020.0
20260507095824 49 102 3.0 3.0 0.00 0.00 0.00 91 1020.0
20260507095216 49 102 3.0 3.0 0.00 0.00 0.00 91 1020.0
20260507094859 49 102 3.0 3.0 0.00 0.00 0.00 91 1020.0
20260507094548 49 102 3.0 3.0 0.00 0.00 0.00 91 1020.0
20260507094241 49 102 3.0 3.0 0.00 0.00 0.00 91 1020.0
20260507093934 49 102 3.0 3.0 0.00 0.00 0.00 91 1020.0
20260507093622 49 102 3.0 3.0 0.00 0.00 0.00 91 1020.0
20260507093310 49 102 3.0 3.0 0.00 0.00 0.00 91 1020.0
20260507093004 49 98 3.0 3.0 0.00 0.00 0.00 91 1020.0
20260507092702 49 98 3.0 3.0 0.00 0.00 0.00 91 1020.0
20260507092401 50 98 3.0 3.0 0.00 0.00 0.00 91 1020.0
20260507092054 50 98 3.0 3.0 0.00 0.00 0.00 91 1020.0
20260507091748 50 98 3.0 3.0 0.00 0.00 0.00 91 1020.0
20260507091442 50 98 3.0 3.0 0.00 0.00 0.00 91 1020.0
20260507091140 53 0 3.0 0.0 0.00 0.00 0.00 94 1020.0
20260507090834 51 350 3.0 0.0 0.00 0.00 0.00 93 1020.0
20260507090528 51 350 3.0 0.0 0.00 0.00 0.00 93 1020.0
20260507090221 51 350 3.0 0.0 0.00 0.00 0.00 93 1020.0
20260507085915 51 350 3.0 0.0 0.00 0.00 0.00 91 1020.0
20260507085608 51 350 3.0 0.0 0.00 0.00 0.00 91 1020.0
20260507085301 51 350 3.0 0.0 0.00 0.00 0.00 91 1020.0
20260507084955 51 350 3.0 0.0 0.00 0.00 0.00 91 1020.0
20260507084648 51 350 3.0 0.0 0.00 0.00 0.00 91 1020.0
20260507084337 51 350 3.0 0.0 0.00 0.00 0.00 91 1020.0
20260507084030 51 350 3.0 0.0 0.00 0.00 0.00 91 1020.0
20260507083724 51 350 3.0 0.0 0.00 0.00 0.00 91 1020.0
20260507083417 51 350 3.0 0.0 0.00 0.00 0.00 91 1020.0
20260507082756 51 350 3.0 0.0 0.00 0.00 0.00 91 1020.0
20260507082449 51 350 3.0 0.0 0.00 0.00 0.00 91 1020.0
20260507082141 51 350 3.0 0.0 0.00 0.00 0.00 91 1020.0
20260507081835 51 350 3.0 0.0 0.00 0.00 0.00 91 1020.0
20260507081527 51 350 3.0 0.0 0.00 0.00 0.00 91 1020.0
20260507080913 51 0 2.0 0.0 0.00 0.00 0.00 91 1020.0
20260507080610 51 350 3.0 0.0 0.00 0.00 0.00 91 1020.0
20260507080303 51 0 2.0 0.0 0.00 0.00 0.00 91 1020.0
20260507075957 51 0 2.0 0.0 0.00 0.00 0.00 91 1020.0
20260507075650 51 0 2.0 0.0 0.00 0.00 0.00 91 1020.0
20260507075344 51 0 2.0 0.0 0.00 0.00 0.00 91 1020.0
20260507075038 51 0 2.0 0.0 0.00 0.00 0.00 91 1020.0
20260507074731 51 0 2.0 0.0 0.00 0.00 0.00 91 1020.0
20260507074424 51 0 2.0 0.0 0.00 0.00 0.00 91 1020.0
20260507074123 51 0 2.0 0.0 0.00 0.00 0.00 91 1020.0
20260507073816 51 0 2.0 0.0 0.00 0.00 0.00 91 1020.0
20260507073510 51 0 2.0 0.0 0.00 0.00 0.00 91 1020.0
20260507073204 51 0 2.0 0.0 0.00 0.00 0.00 91 1020.0
20260507072857 51 0 2.0 0.0 0.00 0.00 0.00 91 1020.0
20260507072556 51 0 2.0 0.0 0.00 0.00 0.00 91 1020.0
20260507072249 51 0 2.0 0.0 0.00 0.00 0.00 91 1020.0
20260507071943 51 0 2.0 0.0 0.00 0.00 0.00 91 1020.0
20260507071642 51 0 2.0 0.0 0.00 0.00 0.00 91 1020.0
20260507071335 51 0 2.0 0.0 0.00 0.00 0.00 91 1020.0
20260507071029 51 0 2.0 0.0 0.00 0.00 0.00 91 1020.0
20260507070722 51 0 2.0 0.0 0.00 0.00 0.00 91 1020.0
20260507070416 51 60 4.0 0.0 0.00 0.00 0.00 91 1020.0
20260507070109 51 60 4.0 0.0 0.00 0.00 0.00 91 1020.0
20260507065803 51 60 4.0 0.0 0.00 0.00 0.00 91 1020.0
20260507065456 51 60 4.0 0.0 0.00 0.00 0.00 91 1020.0
20260507065154 51 60 4.0 0.0 0.00 0.00 0.00 91 1020.0
20260507064847 52 60 4.0 0.0 0.00 0.00 0.00 89 1021.0
20260507064541 52 60 4.0 0.0 0.00 0.00 0.00 89 1021.0
20260507064233 52 60 4.0 0.0 0.00 0.00 0.00 89 1021.0
20260507063921 52 60 4.0 0.0 0.00 0.00 0.00 89 1021.0
20260507063619 52 60 4.0 0.0 0.00 0.00 0.00 89 1021.0
20260507063313 52 60 4.0 0.0 0.00 0.00 0.00 89 1021.0
20260507063006 52 60 4.0 0.0 0.00 0.00 0.00 89 1021.0
20260507062700 52 60 4.0 0.0 0.00 0.00 0.00 89 1021.0
20260507062359 52 60 4.0 0.0 0.00 0.00 0.00 89 1021.0
20260507062057 52 60 4.0 0.0 0.00 0.00 0.00 88 1021.0
20260507061751 52 60 4.0 0.0 0.00 0.00 0.00 88 1021.0
20260507061449 52 60 4.0 0.0 0.00 0.00 0.00 88 1021.0
20260507061143 52 60 4.0 0.0 0.00 0.00 0.00 88 1021.0
20260507060836 51 40 2.0 0.0 0.00 0.00 0.00 87 1021.0
20260507060530 51 40 2.0 0.0 0.00 0.00 0.00 87 1021.0
20260507060223 51 40 2.0 0.0 0.00 0.00 0.00 87 1021.0
20260507055916 51 40 2.0 0.0 0.00 0.00 0.00 87 1021.0
20260507055614 51 40 2.0 0.0 0.00 0.00 0.00 87 1021.0
20260507055308 51 40 2.0 0.0 0.00 0.00 0.00 87 1021.0
20260507055006 51 40 2.0 0.0 0.00 0.00 0.00 86 1021.0
20260507054653 51 40 2.0 0.0 0.00 0.00 0.00 86 1021.0
20260507054025 51 40 2.0 0.0 0.00 0.00 0.00 86 1021.0
20260507053714 51 40 2.0 0.0 0.00 0.00 0.00 86 1022.0
20260507053413 51 40 2.0 0.0 0.00 0.00 0.00 86 1022.0
20260507053103 51 40 2.0 0.0 0.00 0.00 0.00 86 1022.0
20260507052757 51 40 2.0 0.0 0.00 0.00 0.00 86 1022.0
20260507052446 51 40 2.0 0.0 0.00 0.00 0.00 86 1022.0
20260507052143 51 40 2.0 0.0 0.00 0.00 0.00 86 1022.0
20260507051842 51 40 2.0 0.0 0.00 0.00 0.00 86 1022.0
20260507050504 51 20 3.0 0.0 0.00 0.00 0.00 84 1022.0
20260507045446 51 20 3.0 0.0 0.00 0.00 0.00 83 1022.0
20260507045133 51 20 3.0 0.0 0.00 0.00 0.00 83 1022.0
20260507044524 51 20 3.0 0.0 0.00 0.00 0.00 81 1022.0
20260507044218 51 20 3.0 0.0 0.00 0.00 0.00 81 1022.0
20260507043915 51 20 3.0 0.0 0.00 0.00 0.00 81 1022.0
20260507043609 51 20 3.0 0.0 0.00 0.00 0.00 81 1022.0
20260507043302 52 20 3.0 0.0 0.00 0.00 0.00 78 1022.0
20260507043001 52 20 3.0 0.0 0.00 0.00 0.00 78 1022.0
20260507042658 52 20 3.0 0.0 0.00 0.00 0.00 78 1022.0
20260507042352 52 20 3.0 0.0 0.00 0.00 0.00 78 1022.0
20260507042046 52 20 3.0 0.0 0.00 0.00 0.00 78 1022.0
20260507041739 52 20 3.0 0.0 0.00 0.00 0.00 75 1022.0
20260507041428 52 20 3.0 0.0 0.00 0.00 0.00 75 1022.0
20260507041121 53 20 3.0 0.0 0.00 0.00 0.00 74 1022.0
20260507040820 53 70 4.0 0.0 0.00 0.00 0.00 71 1022.0
20260507040518 53 20 3.0 0.0 0.00 0.00 0.00 74 1022.0
20260507040207 53 70 4.0 0.0 0.00 0.00 0.00 71 1022.0
20260507035900 53 70 4.0 0.0 0.00 0.00 0.00 71 1022.0
20260507035544 53 70 4.0 0.0 0.00 0.00 0.00 71 1022.0
20260507035237 53 70 4.0 0.0 0.00 0.00 0.00 71 1022.0
20260507034931 53 70 4.0 0.0 0.00 0.00 0.00 71 1022.0
20260507034629 53 70 4.0 0.0 0.00 0.00 0.00 71 1022.0
20260507034323 53 70 4.0 0.0 0.00 0.00 0.00 71 1022.0
20260507034021 53 70 4.0 0.0 0.00 0.00 0.00 71 1022.0
20260507033714 53 70 4.0 0.0 0.00 0.00 0.00 71 1022.0
20260507033407 53 70 4.0 0.0 0.00 0.00 0.00 71 1022.0
20260507033101 53 70 4.0 0.0 0.00 0.00 0.00 71 1022.0
20260507032759 53 70 4.0 0.0 0.00 0.00 0.00 71 1022.0
20260507032458 54 70 4.0 0.0 0.00 0.00 0.00 71 1022.0
20260507032156 54 70 4.0 0.0 0.00 0.00 0.00 71 1022.0
20260507031850 54 70 4.0 0.0 0.00 0.00 0.00 71 1022.0
20260507031543 54 70 4.0 0.0 0.00 0.00 0.00 71 1022.0
20260507031241 58 110 4.0 0.0 0.00 0.00 0.00 58 1022.0
20260507030934 54 70 4.0 0.0 0.00 0.00 0.00 71 1022.0
20260507030633 58 110 4.0 0.0 0.00 0.00 0.00 58 1022.0
20260507030331 58 110 4.0 0.0 0.00 0.00 0.00 58 1022.0
20260507030030 58 110 4.0 0.0 0.00 0.00 0.00 58 1022.0
20260507025723 58 110 4.0 0.0 0.00 0.00 0.00 58 1022.0
20260507025417 58 110 4.0 0.0 0.00 0.00 0.00 58 1022.0
20260507025110 58 110 4.0 0.0 0.00 0.00 0.00 58 1022.0
20260507024804 58 110 4.0 0.0 0.00 0.00 0.00 58 1022.0
20260507024457 58 110 4.0 0.0 0.00 0.00 0.00 58 1022.0
20260507024156 58 110 4.0 0.0 0.00 0.00 0.00 58 1022.0
20260507023850 58 110 4.0 0.0 0.00 0.00 0.00 58 1022.0
20260507023548 58 110 4.0 0.0 0.00 0.00 0.00 58 1021.0
20260507023247 58 110 4.0 0.0 0.00 0.00 0.00 58 1021.0
20260507022940 58 110 4.0 0.0 0.00 0.00 0.00 58 1021.0
20260507022638 58 110 4.0 0.0 0.00 0.00 0.00 58 1021.0